Toronto Pearson, Ontario

4:12 PM EDT on August 24, 2016 (GMT -0400)
Toronto-Pearson International | | Change Station

Elev 568 ft 43.68 °N, 79.63 °W | Updated 12 minutes ago

Mostly Cloudy
Mostly Cloudy
86 °F
Feels Like 85 °F
N
18
Wind Variable Wind from SSW
Gusts 25 mph

Today
High -- | Low -- °F
--% Chance of Precip.
Yesterday
High -- | Low -- °F
Precip. -- in
Pressure 30.04 in
Visibility 15.0 miles
Clouds Few 6000 ft
Few 17000 ft
Mostly Cloudy 23000 ft
Heat Index 85 °F
Dew Point 59 °F
Humidity 40%
Rainfall 0.00 in
Snow Depth Not available.
6:33 AM 8:06 PM
Waning Gibbous, 54% visible
METAR CYYZ 242000Z 20016G22KT 170V230 15SM FEW060 FEW170 BKN230 30/15 A3004 RMK CU1AC1CI5 AC TR SLP171 DENSITY ALT 2200FT
Pressure 30.04 in
Visibility 15.0 miles
Clouds Few 6000 ft
Few 17000 ft
Mostly Cloudy 23000 ft
Heat Index 85 °F
Dew Point 59 °F
Humidity 40%
Rainfall 0.00 in
Snow Depth Not available.
6:33 AM 8:06 PM
Waning Gibbous, 54% visible
METAR CYYZ 242000Z 20016G22KT 170V230 15SM FEW060 FEW170 BKN230 30/15 A3004 RMK CU1AC1CI5 AC TR SLP171 DENSITY ALT 2200FT

10-Day Weather Forecast

Almanac

Astronomy

Aug. 24, 2016 Rise Set
Actual Time
Civil Twilight
Nautical Twilight
Astronomical Twilight
Moon
Length of Visible Light
Length of Day
Tomorrow will be .
, % of the Moon is Illuminated

Today's Extremes

Country Highs Country Lows

Community

WunderPhotos

Upload Photos

1,934,699 photos uploaded!

WunderBlog® & News

Nearby

Air Quality

  Air Quality AQ Index Pollutant
Not available.

Snow Depth

Station Depth Elevation

Earthquake Activity

City Distance Mag. Time & Date
Minimum magnitude displayed is 2.5.

Coastal Water Temperatures

Place Temperature

Stations

Nearby Weather Stations

Station Location Temp. Windchill Dew Point Humidity Wind Precip. Elev Updated Type
                   

Watches & Warnings

There are currently no watches in effect.